sensor_id;sensor_type;location;lat;lon;timestamp;P1;durP1;ratioP1;P2;durP2;ratioP2
1004;SDS011;491;53.480;10.174;2023-04-24T00:02:02;3.67;;;2.67;;
1004;SDS011;491;53.480;10.174;2023-04-24T00:04:28;4.60;;;3.13;;
1004;SDS011;491;53.480;10.174;2023-04-24T00:06:55;3.30;;;2.27;;
1004;SDS011;491;53.480;10.174;2023-04-24T00:09:21;4.07;;;2.73;;
1004;SDS011;491;53.480;10.174;2023-04-24T00:11:48;4.77;;;2.60;;
1004;SDS011;491;53.480;10.174;2023-04-24T00:14:15;5.17;;;2.67;;
1004;SDS011;491;53.480;10.174;2023-04-24T00:16:40;3.93;;;2.60;;
1004;SDS011;491;53.480;10.174;2023-04-24T00:19:06;5.23;;;3.00;;
1004;SDS011;491;53.480;10.174;2023-04-24T00:21:32;5.77;;;2.87;;
1004;SDS011;491;53.480;10.174;2023-04-24T00:23:57;6.70;;;3.87;;
1004;SDS011;491;53.480;10.174;2023-04-24T00:26:23;4.00;;;2.90;;
1004;SDS011;491;53.480;10.174;2023-04-24T00:28:49;4.80;;;3.23;;
1004;SDS011;491;53.480;10.174;2023-04-24T00:31:14;4.83;;;3.23;;
1004;SDS011;491;53.480;10.174;2023-04-24T00:33:40;4.20;;;2.80;;
1004;SDS011;491;53.480;10.174;2023-04-24T00:36:06;4.60;;;2.53;;
1004;SDS011;491;53.480;10.174;2023-04-24T00:38:32;5.00;;;2.70;;
1004;SDS011;491;53.480;10.174;2023-04-24T00:40:57;6.00;;;3.40;;
1004;SDS011;491;53.480;10.174;2023-04-24T00:43:23;4.20;;;3.30;;
1004;SDS011;491;53.480;10.174;2023-04-24T00:45:53;3.70;;;2.77;;
1004;SDS011;491;53.480;10.174;2023-04-24T00:48:19;4.00;;;3.43;;
1004;SDS011;491;53.480;10.174;2023-04-24T00:50:47;3.93;;;3.60;;
1004;SDS011;491;53.480;10.174;2023-04-24T00:53:12;3.97;;;3.00;;
1004;SDS011;491;53.480;10.174;2023-04-24T00:55:51;4.13;;;3.33;;
1004;SDS011;491;53.480;10.174;2023-04-24T00:58:18;4.03;;;3.40;;
1004;SDS011;491;53.480;10.174;2023-04-24T01:00:43;6.50;;;2.63;;
1004;SDS011;491;53.480;10.174;2023-04-24T01:03:12;4.60;;;2.83;;
1004;SDS011;491;53.480;10.174;2023-04-24T01:05:40;3.03;;;2.40;;
1004;SDS011;491;53.480;10.174;2023-04-24T01:08:06;4.20;;;3.10;;
1004;SDS011;491;53.480;10.174;2023-04-24T01:10:33;4.67;;;3.50;;
1004;SDS011;491;53.480;10.174;2023-04-24T01:13:01;5.93;;;3.00;;
1004;SDS011;491;53.480;10.174;2023-04-24T01:15:41;4.10;;;2.80;;
1004;SDS011;491;53.480;10.174;2023-04-24T01:18:08;4.03;;;2.93;;
1004;SDS011;491;53.480;10.174;2023-04-24T01:20:33;4.90;;;2.50;;
1004;SDS011;491;53.480;10.174;2023-04-24T01:22:59;4.20;;;3.20;;
1004;SDS011;491;53.480;10.174;2023-04-24T01:25:26;3.53;;;1.97;;
1004;SDS011;491;53.480;10.174;2023-04-24T01:27:56;5.10;;;1.90;;
1004;SDS011;491;53.480;10.174;2023-04-24T01:30:21;3.10;;;2.03;;
1004;SDS011;491;53.480;10.174;2023-04-24T01:32:46;5.40;;;2.43;;
1004;SDS011;491;53.480;10.174;2023-04-24T01:35:13;3.23;;;1.93;;
1004;SDS011;491;53.480;10.174;2023-04-24T01:37:38;3.93;;;2.13;;
1004;SDS011;491;53.480;10.174;2023-04-24T01:40:05;3.13;;;2.47;;
1004;SDS011;491;53.480;10.174;2023-04-24T01:42:32;4.00;;;1.90;;
1004;SDS011;491;53.480;10.174;2023-04-24T01:44:59;3.80;;;1.80;;
1004;SDS011;491;53.480;10.174;2023-04-24T01:47:26;4.13;;;2.27;;
1004;SDS011;491;53.480;10.174;2023-04-24T01:49:53;3.73;;;2.20;;
1004;SDS011;491;53.480;10.174;2023-04-24T01:52:18;3.27;;;2.30;;
1004;SDS011;491;53.480;10.174;2023-04-24T01:54:47;2.93;;;1.87;;
1004;SDS011;491;53.480;10.174;2023-04-24T01:57:13;3.43;;;1.90;;
1004;SDS011;491;53.480;10.174;2023-04-24T01:59:40;4.13;;;2.33;;
1004;SDS011;491;53.480;10.174;2023-04-24T02:02:12;3.70;;;2.37;;
1004;SDS011;491;53.480;10.174;2023-04-24T02:04:38;2.93;;;1.60;;
1004;SDS011;491;53.480;10.174;2023-04-24T02:07:10;4.30;;;1.90;;
1004;SDS011;491;53.480;10.174;2023-04-24T02:09:35;4.27;;;1.90;;
1004;SDS011;491;53.480;10.174;2023-04-24T02:12:01;3.03;;;2.40;;
1004;SDS011;491;53.480;10.174;2023-04-24T02:14:28;2.20;;;1.70;;
1004;SDS011;491;53.480;10.174;2023-04-24T02:16:54;1.53;;;1.20;;
1004;SDS011;491;53.480;10.174;2023-04-24T02:19:23;2.90;;;1.63;;
1004;SDS011;491;53.480;10.174;2023-04-24T02:21:48;6.20;;;1.93;;
1004;SDS011;491;53.480;10.174;2023-04-24T02:24:14;2.90;;;1.60;;
1004;SDS011;491;53.480;10.174;2023-04-24T02:26:40;3.20;;;1.30;;
1004;SDS011;491;53.480;10.174;2023-04-24T02:29:06;2.20;;;0.97;;
1004;SDS011;491;53.480;10.174;2023-04-24T02:31:31;2.03;;;1.20;;
1004;SDS011;491;53.480;10.174;2023-04-24T02:33:57;2.33;;;0.90;;
1004;SDS011;491;53.480;10.174;2023-04-24T02:36:22;1.77;;;0.70;;
1004;SDS011;491;53.480;10.174;2023-04-24T02:38:48;1.40;;;0.73;;
1004;SDS011;491;53.480;10.174;2023-04-24T02:41:13;1.90;;;1.20;;
1004;SDS011;491;53.480;10.174;2023-04-24T02:43:39;2.80;;;0.90;;
1004;SDS011;491;53.480;10.174;2023-04-24T02:46:04;1.00;;;0.47;;
1004;SDS011;491;53.480;10.174;2023-04-24T02:48:30;2.30;;;1.20;;
1004;SDS011;491;53.480;10.174;2023-04-24T02:50:55;0.60;;;0.20;;
1004;SDS011;491;53.480;10.174;2023-04-24T02:53:23;1.83;;;0.60;;
1004;SDS011;491;53.480;10.174;2023-04-24T02:55:49;1.47;;;0.60;;
1004;SDS011;491;53.480;10.174;2023-04-24T02:58:15;1.23;;;0.60;;
1004;SDS011;491;53.480;10.174;2023-04-24T03:00:41;1.50;;;0.43;;
1004;SDS011;491;53.480;10.174;2023-04-24T03:03:08;0.80;;;0.40;;
1004;SDS011;491;53.480;10.174;2023-04-24T03:05:33;1.13;;;0.50;;
1004;SDS011;491;53.480;10.174;2023-04-24T03:07:59;1.73;;;0.77;;
1004;SDS011;491;53.480;10.174;2023-04-24T03:10:25;1.10;;;0.33;;
1004;SDS011;491;53.480;10.174;2023-04-24T03:12:50;1.40;;;0.60;;
1004;SDS011;491;53.480;10.174;2023-04-24T03:15:16;1.60;;;0.67;;
1004;SDS011;491;53.480;10.174;2023-04-24T03:17:41;3.73;;;0.40;;
1004;SDS011;491;53.480;10.174;2023-04-24T03:20:08;3.30;;;0.83;;
1004;SDS011;491;53.480;10.174;2023-04-24T03:22:34;1.53;;;0.30;;
1004;SDS011;491;53.480;10.174;2023-04-24T03:25:00;1.40;;;0.50;;
1004;SDS011;491;53.480;10.174;2023-04-24T03:27:26;1.27;;;0.50;;
1004;SDS011;491;53.480;10.174;2023-04-24T03:29:55;1.00;;;0.40;;
1004;SDS011;491;53.480;10.174;2023-04-24T03:32:21;0.90;;;0.57;;
1004;SDS011;491;53.480;10.174;2023-04-24T03:34:47;0.73;;;0.30;;
1004;SDS011;491;53.480;10.174;2023-04-24T03:37:13;1.23;;;0.57;;
1004;SDS011;491;53.480;10.174;2023-04-24T03:39:39;0.90;;;0.47;;
1004;SDS011;491;53.480;10.174;2023-04-24T03:42:06;1.50;;;0.30;;
1004;SDS011;491;53.480;10.174;2023-04-24T03:44:33;1.17;;;0.60;;
1004;SDS011;491;53.480;10.174;2023-04-24T03:46:59;1.10;;;0.40;;
1004;SDS011;491;53.480;10.174;2023-04-24T03:49:25;0.80;;;0.50;;
1004;SDS011;491;53.480;10.174;2023-04-24T03:51:50;1.27;;;0.50;;
1004;SDS011;491;53.480;10.174;2023-04-24T03:54:17;1.20;;;0.50;;
1004;SDS011;491;53.480;10.174;2023-04-24T03:56:43;1.60;;;0.47;;
1004;SDS011;491;53.480;10.174;2023-04-24T03:59:08;2.20;;;0.50;;
1004;SDS011;491;53.480;10.174;2023-04-24T04:01:34;0.87;;;0.50;;
1004;SDS011;491;53.480;10.174;2023-04-24T04:04:03;0.90;;;0.40;;
1004;SDS011;491;53.480;10.174;2023-04-24T04:06:29;1.43;;;0.40;;
1004;SDS011;491;53.480;10.174;2023-04-24T04:08:56;1.77;;;0.33;;
1004;SDS011;491;53.480;10.174;2023-04-24T04:11:22;1.20;;;0.40;;
1004;SDS011;491;53.480;10.174;2023-04-24T04:13:48;0.60;;;0.33;;
1004;SDS011;491;53.480;10.174;2023-04-24T04:16:14;0.70;;;0.40;;
1004;SDS011;491;53.480;10.174;2023-04-24T04:18:44;1.00;;;0.50;;
1004;SDS011;491;53.480;10.174;2023-04-24T04:21:10;0.57;;;0.30;;
1004;SDS011;491;53.480;10.174;2023-04-24T04:23:36;3.73;;;1.10;;
1004;SDS011;491;53.480;10.174;2023-04-24T04:26:02;0.97;;;0.30;;
1004;SDS011;491;53.480;10.174;2023-04-24T04:28:31;1.83;;;0.70;;
1004;SDS011;491;53.480;10.174;2023-04-24T04:30:57;1.37;;;0.33;;
1004;SDS011;491;53.480;10.174;2023-04-24T04:33:23;0.93;;;0.40;;
1004;SDS011;491;53.480;10.174;2023-04-24T04:35:49;1.60;;;0.50;;
1004;SDS011;491;53.480;10.174;2023-04-24T04:38:16;1.27;;;0.40;;
1004;SDS011;491;53.480;10.174;2023-04-24T04:40:43;0.80;;;0.35;;
1004;SDS011;491;53.480;10.174;2023-04-24T04:43:08;0.80;;;0.33;;
1004;SDS011;491;53.480;10.174;2023-04-24T04:45:35;1.00;;;0.30;;
1004;SDS011;491;53.480;10.174;2023-04-24T04:48:00;0.77;;;0.30;;
1004;SDS011;491;53.480;10.174;2023-04-24T04:50:27;1.37;;;0.40;;
1004;SDS011;491;53.480;10.174;2023-04-24T04:52:52;1.27;;;0.30;;
1004;SDS011;491;53.480;10.174;2023-04-24T04:55:18;0.80;;;0.40;;
1004;SDS011;491;53.480;10.174;2023-04-24T04:57:46;0.70;;;0.40;;
1004;SDS011;491;53.480;10.174;2023-04-24T05:00:12;1.00;;;0.37;;
1004;SDS011;491;53.480;10.174;2023-04-24T05:02:38;0.70;;;0.23;;
1004;SDS011;491;53.480;10.174;2023-04-24T05:05:04;0.80;;;0.30;;
1004;SDS011;491;53.480;10.174;2023-04-24T05:07:31;0.83;;;0.30;;
1004;SDS011;491;53.480;10.174;2023-04-24T05:09:56;1.30;;;0.63;;
1004;SDS011;491;53.480;10.174;2023-04-24T05:12:22;1.10;;;0.40;;
1004;SDS011;491;53.480;10.174;2023-04-24T05:14:53;1.33;;;0.37;;
1004;SDS011;491;53.480;10.174;2023-04-24T05:17:19;0.80;;;0.63;;
1004;SDS011;491;53.480;10.174;2023-04-24T05:19:44;1.07;;;0.30;;
1004;SDS011;491;53.480;10.174;2023-04-24T05:22:10;1.30;;;0.43;;
1004;SDS011;491;53.480;10.174;2023-04-24T05:24:36;1.00;;;0.67;;
1004;SDS011;491;53.480;10.174;2023-04-24T05:27:02;0.73;;;0.20;;
1004;SDS011;491;53.480;10.174;2023-04-24T05:29:29;0.53;;;0.20;;
1004;SDS011;491;53.480;10.174;2023-04-24T05:31:56;0.63;;;0.33;;
1004;SDS011;491;53.480;10.174;2023-04-24T05:34:25;2.30;;;0.30;;
1004;SDS011;491;53.480;10.174;2023-04-24T05:36:50;0.57;;;0.20;;
1004;SDS011;491;53.480;10.174;2023-04-24T05:39:16;0.67;;;0.47;;
1004;SDS011;491;53.480;10.174;2023-04-24T05:41:41;0.73;;;0.30;;
1004;SDS011;491;53.480;10.174;2023-04-24T05:44:07;0.70;;;0.20;;
1004;SDS011;491;53.480;10.174;2023-04-24T05:46:32;1.10;;;0.43;;
1004;SDS011;491;53.480;10.174;2023-04-24T05:48:58;2.27;;;0.40;;
1004;SDS011;491;53.480;10.174;2023-04-24T05:51:23;0.70;;;0.30;;
1004;SDS011;491;53.480;10.174;2023-04-24T05:53:56;1.07;;;0.20;;
1004;SDS011;491;53.480;10.174;2023-04-24T05:56:23;0.77;;;0.23;;
1004;SDS011;491;53.480;10.174;2023-04-24T05:58:49;0.70;;;0.37;;
1004;SDS011;491;53.480;10.174;2023-04-24T06:01:17;0.50;;;0.20;;
1004;SDS011;491;53.480;10.174;2023-04-24T06:03:43;0.57;;;0.20;;
1004;SDS011;491;53.480;10.174;2023-04-24T06:06:08;1.80;;;0.20;;
1004;SDS011;491;53.480;10.174;2023-04-24T06:08:34;1.67;;;0.20;;
1004;SDS011;491;53.480;10.174;2023-04-24T06:11:00;1.23;;;0.20;;
1004;SDS011;491;53.480;10.174;2023-04-24T06:13:26;0.50;;;0.20;;
1004;SDS011;491;53.480;10.174;2023-04-24T06:15:54;0.70;;;0.20;;
1004;SDS011;491;53.480;10.174;2023-04-24T06:18:20;1.00;;;0.50;;
1004;SDS011;491;53.480;10.174;2023-04-24T06:20:48;0.60;;;0.50;;
1004;SDS011;491;53.480;10.174;2023-04-24T06:23:14;1.80;;;0.40;;
1004;SDS011;491;53.480;10.174;2023-04-24T06:25:40;0.80;;;0.40;;
1004;SDS011;491;53.480;10.174;2023-04-24T06:28:05;0.87;;;0.30;;
1004;SDS011;491;53.480;10.174;2023-04-24T06:30:31;0.60;;;0.20;;
1004;SDS011;491;53.480;10.174;2023-04-24T06:32:58;1.57;;;0.50;;
1004;SDS011;491;53.480;10.174;2023-04-24T06:35:24;1.27;;;0.30;;
1004;SDS011;491;53.480;10.174;2023-04-24T06:37:50;0.80;;;0.37;;
1004;SDS011;491;53.480;10.174;2023-04-24T06:40:16;1.47;;;0.40;;
1004;SDS011;491;53.480;10.174;2023-04-24T06:42:43;0.80;;;0.30;;
1004;SDS011;491;53.480;10.174;2023-04-24T06:45:09;2.70;;;0.40;;
1004;SDS011;491;53.480;10.174;2023-04-24T06:47:36;2.60;;;0.97;;
1004;SDS011;491;53.480;10.174;2023-04-24T06:50:02;0.80;;;0.47;;
1004;SDS011;491;53.480;10.174;2023-04-24T06:52:31;1.33;;;0.47;;
1004;SDS011;491;53.480;10.174;2023-04-24T06:55:01;1.30;;;0.30;;
1004;SDS011;491;53.480;10.174;2023-04-24T06:57:30;1.50;;;0.67;;
1004;SDS011;491;53.480;10.174;2023-04-24T06:59:58;1.60;;;0.50;;
1004;SDS011;491;53.480;10.174;2023-04-24T07:02:24;2.67;;;0.50;;
1004;SDS011;491;53.480;10.174;2023-04-24T07:04:52;0.70;;;0.40;;
1004;SDS011;491;53.480;10.174;2023-04-24T07:07:17;0.60;;;0.60;;
1004;SDS011;491;53.480;10.174;2023-04-24T07:09:43;0.90;;;0.40;;
1004;SDS011;491;53.480;10.174;2023-04-24T07:12:10;0.97;;;0.30;;
1004;SDS011;491;53.480;10.174;2023-04-24T07:14:37;3.60;;;1.00;;
1004;SDS011;491;53.480;10.174;2023-04-24T07:17:03;1.50;;;0.80;;
1004;SDS011;491;53.480;10.174;2023-04-24T07:19:30;1.27;;;0.60;;
1004;SDS011;491;53.480;10.174;2023-04-24T07:21:55;0.93;;;0.87;;
1004;SDS011;491;53.480;10.174;2023-04-24T07:24:23;1.30;;;0.90;;
1004;SDS011;491;53.480;10.174;2023-04-24T07:26:49;2.03;;;1.00;;
1004;SDS011;491;53.480;10.174;2023-04-24T07:29:16;1.83;;;0.80;;
1004;SDS011;491;53.480;10.174;2023-04-24T07:31:42;2.50;;;0.90;;
1004;SDS011;491;53.480;10.174;2023-04-24T07:34:07;1.70;;;0.67;;
1004;SDS011;491;53.480;10.174;2023-04-24T07:36:33;2.90;;;1.10;;
1004;SDS011;491;53.480;10.174;2023-04-24T07:38:58;1.33;;;0.80;;
1004;SDS011;491;53.480;10.174;2023-04-24T07:41:24;1.40;;;0.90;;
1004;SDS011;491;53.480;10.174;2023-04-24T07:43:50;2.30;;;0.73;;
1004;SDS011;491;53.480;10.174;2023-04-24T07:46:15;1.93;;;0.83;;
1004;SDS011;491;53.480;10.174;2023-04-24T07:48:41;1.23;;;0.40;;
1004;SDS011;491;53.480;10.174;2023-04-24T07:51:07;1.70;;;1.07;;
1004;SDS011;491;53.480;10.174;2023-04-24T07:53:35;3.00;;;0.97;;
1004;SDS011;491;53.480;10.174;2023-04-24T07:56:00;1.00;;;0.90;;
1004;SDS011;491;53.480;10.174;2023-04-24T07:58:25;1.63;;;1.00;;
1004;SDS011;491;53.480;10.174;2023-04-24T08:00:51;1.53;;;1.00;;
1004;SDS011;491;53.480;10.174;2023-04-24T08:03:16;2.33;;;0.87;;
1004;SDS011;491;53.480;10.174;2023-04-24T08:05:44;1.33;;;0.90;;
1004;SDS011;491;53.480;10.174;2023-04-24T08:08:09;1.43;;;0.87;;
1004;SDS011;491;53.480;10.174;2023-04-24T08:10:35;2.90;;;1.63;;
1004;SDS011;491;53.480;10.174;2023-04-24T08:13:00;1.80;;;1.30;;
1004;SDS011;491;53.480;10.174;2023-04-24T08:15:27;1.90;;;1.70;;
1004;SDS011;491;53.480;10.174;2023-04-24T08:17:52;2.93;;;1.47;;
1004;SDS011;491;53.480;10.174;2023-04-24T08:20:18;2.00;;;1.80;;
1004;SDS011;491;53.480;10.174;2023-04-24T08:22:44;2.90;;;1.10;;
1004;SDS011;491;53.480;10.174;2023-04-24T08:25:12;2.03;;;1.80;;
1004;SDS011;491;53.480;10.174;2023-04-24T08:27:37;2.03;;;1.73;;
1004;SDS011;491;53.480;10.174;2023-04-24T08:30:04;2.97;;;2.00;;
1004;SDS011;491;53.480;10.174;2023-04-24T08:32:31;3.30;;;2.23;;
1004;SDS011;491;53.480;10.174;2023-04-24T08:34:57;3.90;;;1.80;;
1004;SDS011;491;53.480;10.174;2023-04-24T08:37:23;3.20;;;2.30;;
1004;SDS011;491;53.480;10.174;2023-04-24T08:39:49;4.80;;;2.13;;
1004;SDS011;491;53.480;10.174;2023-04-24T08:42:15;5.20;;;2.10;;
1004;SDS011;491;53.480;10.174;2023-04-24T08:44:42;2.20;;;2.00;;
1004;SDS011;491;53.480;10.174;2023-04-24T08:47:09;2.50;;;1.80;;
1004;SDS011;491;53.480;10.174;2023-04-24T08:49:36;1.67;;;1.50;;
1004;SDS011;491;53.480;10.174;2023-04-24T08:52:08;2.60;;;2.40;;
1004;SDS011;491;53.480;10.174;2023-04-24T08:54:34;2.60;;;2.13;;
1004;SDS011;491;53.480;10.174;2023-04-24T08:57:00;2.43;;;2.07;;
1004;SDS011;491;53.480;10.174;2023-04-24T08:59:28;5.97;;;3.73;;
1004;SDS011;491;53.480;10.174;2023-04-24T09:01:55;3.27;;;2.63;;
1004;SDS011;491;53.480;10.174;2023-04-24T09:04:21;3.03;;;2.70;;
1004;SDS011;491;53.480;10.174;2023-04-24T09:06:49;5.10;;;2.73;;
1004;SDS011;491;53.480;10.174;2023-04-24T09:09:16;3.93;;;2.80;;
1004;SDS011;491;53.480;10.174;2023-04-24T09:11:43;4.70;;;2.77;;
1004;SDS011;491;53.480;10.174;2023-04-24T09:14:12;2.43;;;2.23;;
1004;SDS011;491;53.480;10.174;2023-04-24T09:16:38;3.57;;;3.07;;
1004;SDS011;491;53.480;10.174;2023-04-24T09:19:03;3.60;;;2.60;;
1004;SDS011;491;53.480;10.174;2023-04-24T09:21:32;3.70;;;2.67;;
1004;SDS011;491;53.480;10.174;2023-04-24T09:24:03;3.07;;;2.77;;
1004;SDS011;491;53.480;10.174;2023-04-24T09:26:30;2.90;;;2.30;;
1004;SDS011;491;53.480;10.174;2023-04-24T09:28:58;2.53;;;2.33;;
1004;SDS011;491;53.480;10.174;2023-04-24T09:31:24;2.63;;;2.40;;
1004;SDS011;491;53.480;10.174;2023-04-24T09:34:02;3.33;;;2.83;;
1004;SDS011;491;53.480;10.174;2023-04-24T09:36:40;3.47;;;3.17;;
1004;SDS011;491;53.480;10.174;2023-04-24T09:39:11;4.43;;;2.80;;
1004;SDS011;491;53.480;10.174;2023-04-24T09:41:44;3.50;;;2.70;;
1004;SDS011;491;53.480;10.174;2023-04-24T09:44:18;3.00;;;2.67;;
1004;SDS011;491;53.480;10.174;2023-04-24T09:46:51;4.07;;;3.10;;
1004;SDS011;491;53.480;10.174;2023-04-24T09:49:22;6.63;;;2.70;;
1004;SDS011;491;53.480;10.174;2023-04-24T09:51:48;3.20;;;1.40;;
1004;SDS011;491;53.480;10.174;2023-04-24T09:54:20;2.70;;;2.17;;
1004;SDS011;491;53.480;10.174;2023-04-24T09:56:49;4.03;;;2.77;;
1004;SDS011;491;53.480;10.174;2023-04-24T09:59:16;3.23;;;2.80;;
1004;SDS011;491;53.480;10.174;2023-04-24T10:01:43;3.40;;;2.53;;
1004;SDS011;491;53.480;10.174;2023-04-24T10:06:51;2.60;;;2.33;;
1004;SDS011;491;53.480;10.174;2023-04-24T10:09:20;5.53;;;3.00;;
1004;SDS011;491;53.480;10.174;2023-04-24T10:11:48;3.77;;;3.37;;
1004;SDS011;491;53.480;10.174;2023-04-24T10:14:15;3.70;;;3.17;;
1004;SDS011;491;53.480;10.174;2023-04-24T10:16:42;4.60;;;3.10;;
1004;SDS011;491;53.480;10.174;2023-04-24T10:19:08;4.00;;;3.60;;
1004;SDS011;491;53.480;10.174;2023-04-24T10:21:34;3.33;;;2.67;;
1004;SDS011;491;53.480;10.174;2023-04-24T10:24:02;4.90;;;3.40;;
1004;SDS011;491;53.480;10.174;2023-04-24T10:26:29;4.27;;;3.20;;
1004;SDS011;491;53.480;10.174;2023-04-24T10:28:56;4.90;;;4.17;;
1004;SDS011;491;53.480;10.174;2023-04-24T10:31:23;4.83;;;4.17;;
1004;SDS011;491;53.480;10.174;2023-04-24T10:33:48;6.23;;;4.30;;
1004;SDS011;491;53.480;10.174;2023-04-24T11:05:49;7.30;;;5.33;;
1004;SDS011;491;53.480;10.174;2023-04-24T11:08:21;7.57;;;5.47;;
1004;SDS011;491;53.480;10.174;2023-04-24T11:10:59;6.00;;;5.30;;
1004;SDS011;491;53.480;10.174;2023-04-24T11:13:28;5.33;;;4.83;;
1004;SDS011;491;53.480;10.174;2023-04-24T11:16:26;5.83;;;5.10;;
1004;SDS011;491;53.480;10.174;2023-04-24T11:19:05;5.00;;;4.60;;
1004;SDS011;491;53.480;10.174;2023-04-24T11:21:42;5.30;;;4.80;;
1004;SDS011;491;53.480;10.174;2023-04-24T11:29:39;7.00;;;4.23;;
1004;SDS011;491;53.480;10.174;2023-04-24T11:32:13;6.60;;;4.80;;
1004;SDS011;491;53.480;10.174;2023-04-24T11:34:44;6.90;;;5.30;;
1004;SDS011;491;53.480;10.174;2023-04-24T11:37:14;5.93;;;3.90;;
1004;SDS011;491;53.480;10.174;2023-04-24T11:39:40;7.20;;;4.93;;
1004;SDS011;491;53.480;10.174;2023-04-24T11:42:06;5.30;;;4.30;;
1004;SDS011;491;53.480;10.174;2023-04-24T11:44:33;4.60;;;4.07;;
1004;SDS011;491;53.480;10.174;2023-04-24T11:47:00;4.20;;;3.80;;
1004;SDS011;491;53.480;10.174;2023-04-24T11:49:26;5.77;;;4.27;;
1004;SDS011;491;53.480;10.174;2023-04-24T11:51:55;5.20;;;3.83;;
1004;SDS011;491;53.480;10.174;2023-04-24T11:54:20;5.67;;;3.87;;
1004;SDS011;491;53.480;10.174;2023-04-24T11:56:46;5.30;;;3.27;;
1004;SDS011;491;53.480;10.174;2023-04-24T11:59:13;5.70;;;3.67;;
1004;SDS011;491;53.480;10.174;2023-04-24T12:01:43;3.30;;;3.00;;
1004;SDS011;491;53.480;10.174;2023-04-24T12:04:10;5.67;;;3.93;;
1004;SDS011;491;53.480;10.174;2023-04-24T12:06:35;4.60;;;3.80;;
1004;SDS011;491;53.480;10.174;2023-04-24T12:09:01;4.00;;;3.00;;
1004;SDS011;491;53.480;10.174;2023-04-24T12:11:26;5.33;;;3.70;;
1004;SDS011;491;53.480;10.174;2023-04-24T12:13:52;4.77;;;3.20;;
1004;SDS011;491;53.480;10.174;2023-04-24T12:16:17;3.53;;;2.93;;
1004;SDS011;491;53.480;10.174;2023-04-24T12:18:43;3.43;;;3.13;;
1004;SDS011;491;53.480;10.174;2023-04-24T12:21:19;3.60;;;2.80;;
1004;SDS011;491;53.480;10.174;2023-04-24T12:23:49;2.77;;;2.47;;
1004;SDS011;491;53.480;10.174;2023-04-24T12:26:16;3.80;;;2.90;;
1004;SDS011;491;53.480;10.174;2023-04-24T12:28:48;2.47;;;2.17;;
1004;SDS011;491;53.480;10.174;2023-04-24T12:31:15;6.33;;;4.10;;
1004;SDS011;491;53.480;10.174;2023-04-24T12:33:41;2.77;;;2.30;;
1004;SDS011;491;53.480;10.174;2023-04-24T12:36:09;3.10;;;2.80;;
1004;SDS011;491;53.480;10.174;2023-04-24T12:38:37;4.37;;;3.70;;
1004;SDS011;491;53.480;10.174;2023-04-24T12:41:06;3.33;;;2.70;;
1004;SDS011;491;53.480;10.174;2023-04-24T12:43:33;3.00;;;2.60;;
1004;SDS011;491;53.480;10.174;2023-04-24T12:45:59;4.30;;;3.63;;
1004;SDS011;491;53.480;10.174;2023-04-24T12:48:25;3.60;;;3.23;;
1004;SDS011;491;53.480;10.174;2023-04-24T12:50:51;3.90;;;3.60;;
1004;SDS011;491;53.480;10.174;2023-04-24T12:53:17;3.67;;;2.87;;
1004;SDS011;491;53.480;10.174;2023-04-24T12:55:43;3.80;;;2.40;;
1004;SDS011;491;53.480;10.174;2023-04-24T12:58:09;2.43;;;1.67;;
1004;SDS011;491;53.480;10.174;2023-04-24T13:00:35;3.07;;;1.20;;
1004;SDS011;491;53.480;10.174;2023-04-24T13:03:01;2.83;;;1.53;;
1004;SDS011;491;53.480;10.174;2023-04-24T13:05:26;2.73;;;2.20;;
1004;SDS011;491;53.480;10.174;2023-04-24T13:07:52;2.20;;;1.70;;
1004;SDS011;491;53.480;10.174;2023-04-24T13:10:17;2.70;;;2.00;;
1004;SDS011;491;53.480;10.174;2023-04-24T13:12:44;3.37;;;1.80;;
1004;SDS011;491;53.480;10.174;2023-04-24T13:15:11;3.13;;;2.40;;
1004;SDS011;491;53.480;10.174;2023-04-24T13:17:37;3.03;;;1.83;;
1004;SDS011;491;53.480;10.174;2023-04-24T13:20:02;2.60;;;1.83;;
1004;SDS011;491;53.480;10.174;2023-04-24T13:22:28;4.00;;;2.63;;
1004;SDS011;491;53.480;10.174;2023-04-24T13:24:53;2.90;;;2.17;;
1004;SDS011;491;53.480;10.174;2023-04-24T13:27:19;5.40;;;2.77;;
1004;SDS011;491;53.480;10.174;2023-04-24T13:29:45;3.90;;;3.17;;
1004;SDS011;491;53.480;10.174;2023-04-24T13:32:10;3.40;;;1.83;;
1004;SDS011;491;53.480;10.174;2023-04-24T13:34:36;2.67;;;1.73;;
1004;SDS011;491;53.480;10.174;2023-04-24T13:37:01;7.87;;;2.80;;
1004;SDS011;491;53.480;10.174;2023-04-24T13:39:28;4.00;;;2.97;;
1004;SDS011;491;53.480;10.174;2023-04-24T13:41:54;4.30;;;2.53;;
1004;SDS011;491;53.480;10.174;2023-04-24T13:44:23;2.63;;;1.80;;
1004;SDS011;491;53.480;10.174;2023-04-24T13:46:51;2.33;;;2.13;;
1004;SDS011;491;53.480;10.174;2023-04-24T13:49:19;2.43;;;1.60;;
1004;SDS011;491;53.480;10.174;2023-04-24T13:51:45;2.03;;;1.83;;
1004;SDS011;491;53.480;10.174;2023-04-24T13:54:11;2.20;;;1.80;;
1004;SDS011;491;53.480;10.174;2023-04-24T13:56:38;2.87;;;2.57;;
1004;SDS011;491;53.480;10.174;2023-04-24T13:59:04;3.30;;;2.10;;
1004;SDS011;491;53.480;10.174;2023-04-24T14:01:33;2.97;;;2.17;;
1004;SDS011;491;53.480;10.174;2023-04-24T14:04:02;3.07;;;1.70;;
1004;SDS011;491;53.480;10.174;2023-04-24T14:06:27;2.23;;;2.10;;
1004;SDS011;491;53.480;10.174;2023-04-24T14:08:53;2.10;;;1.90;;
1004;SDS011;491;53.480;10.174;2023-04-24T14:11:18;2.57;;;1.90;;
1004;SDS011;491;53.480;10.174;2023-04-24T14:13:44;2.63;;;1.53;;
1004;SDS011;491;53.480;10.174;2023-04-24T14:16:10;3.10;;;1.53;;
1004;SDS011;491;53.480;10.174;2023-04-24T14:18:36;2.70;;;1.87;;
1004;SDS011;491;53.480;10.174;2023-04-24T14:21:02;2.60;;;2.27;;
1004;SDS011;491;53.480;10.174;2023-04-24T14:23:28;2.13;;;1.40;;
1004;SDS011;491;53.480;10.174;2023-04-24T14:25:53;2.77;;;1.90;;
1004;SDS011;491;53.480;10.174;2023-04-24T14:28:19;2.60;;;2.07;;
1004;SDS011;491;53.480;10.174;2023-04-24T14:30:46;2.50;;;1.60;;
1004;SDS011;491;53.480;10.174;2023-04-24T14:33:12;2.83;;;2.10;;
1004;SDS011;491;53.480;10.174;2023-04-24T14:35:38;1.50;;;1.33;;
1004;SDS011;491;53.480;10.174;2023-04-24T14:38:04;2.03;;;1.50;;
1004;SDS011;491;53.480;10.174;2023-04-24T14:40:30;2.53;;;1.60;;
1004;SDS011;491;53.480;10.174;2023-04-24T14:42:57;1.63;;;1.20;;
1004;SDS011;491;53.480;10.174;2023-04-24T14:45:23;4.43;;;2.40;;
1004;SDS011;491;53.480;10.174;2023-04-24T14:47:52;2.10;;;1.80;;
1004;SDS011;491;53.480;10.174;2023-04-24T14:50:18;2.20;;;1.90;;
1004;SDS011;491;53.480;10.174;2023-04-24T14:52:44;3.60;;;1.90;;
1004;SDS011;491;53.480;10.174;2023-04-24T14:55:09;2.40;;;1.50;;
1004;SDS011;491;53.480;10.174;2023-04-24T14:57:35;2.90;;;1.70;;
1004;SDS011;491;53.480;10.174;2023-04-24T15:00:01;2.50;;;1.40;;
1004;SDS011;491;53.480;10.174;2023-04-24T15:02:36;2.10;;;1.30;;
1004;SDS011;491;53.480;10.174;2023-04-24T15:05:05;2.37;;;1.37;;
1004;SDS011;491;53.480;10.174;2023-04-24T15:07:31;2.00;;;1.47;;
1004;SDS011;491;53.480;10.174;2023-04-24T15:10:00;1.63;;;1.53;;
1004;SDS011;491;53.480;10.174;2023-04-24T15:12:26;1.93;;;1.73;;
1004;SDS011;491;53.480;10.174;2023-04-24T15:14:53;2.33;;;1.90;;
1004;SDS011;491;53.480;10.174;2023-04-24T15:17:21;1.80;;;1.03;;
1004;SDS011;491;53.480;10.174;2023-04-24T15:19:47;3.70;;;1.60;;
1004;SDS011;491;53.480;10.174;2023-04-24T15:22:12;3.13;;;1.50;;
1004;SDS011;491;53.480;10.174;2023-04-24T15:24:38;3.87;;;2.53;;
1004;SDS011;491;53.480;10.174;2023-04-24T15:27:09;3.33;;;2.13;;
1004;SDS011;491;53.480;10.174;2023-04-24T15:29:35;3.10;;;2.20;;
1004;SDS011;491;53.480;10.174;2023-04-24T15:32:02;2.80;;;2.13;;
1004;SDS011;491;53.480;10.174;2023-04-24T15:34:29;3.27;;;2.87;;
1004;SDS011;491;53.480;10.174;2023-04-24T15:36:54;3.93;;;2.83;;
1004;SDS011;491;53.480;10.174;2023-04-24T15:39:22;3.73;;;2.13;;
1004;SDS011;491;53.480;10.174;2023-04-24T15:41:50;4.00;;;2.40;;
1004;SDS011;491;53.480;10.174;2023-04-24T15:44:23;2.87;;;1.47;;
1004;SDS011;491;53.480;10.174;2023-04-24T15:46:49;2.57;;;1.60;;
1004;SDS011;491;53.480;10.174;2023-04-24T15:49:16;1.53;;;0.87;;
1004;SDS011;491;53.480;10.174;2023-04-24T15:51:43;1.57;;;0.80;;